createdAt,value
2019-01-31T00:02:48.288Z,25.70
2019-01-31T00:05:40.545Z,25.53
2019-01-31T00:08:46.243Z,23.87
2019-01-31T00:11:59.609Z,29.40
2019-01-31T00:14:56.089Z,28.30
2019-01-31T00:17:53.855Z,26.10
2019-01-31T00:21:16.639Z,28.10
2019-01-31T00:24:22.159Z,24.60
2019-01-31T00:27:33.067Z,23.57
2019-01-31T00:30:40.148Z,24.00
2019-01-31T00:33:46.799Z,25.23
2019-01-31T00:36:41.166Z,25.00
2019-01-31T00:39:50.482Z,28.17
2019-01-31T00:43:03.367Z,24.33
2019-01-31T00:46:06.390Z,25.27
2019-01-31T00:48:54.581Z,26.00
2019-01-31T00:51:59.292Z,28.07
2019-01-31T00:55:15.000Z,26.97
2019-01-31T00:58:01.493Z,23.17
2019-01-31T01:01:08.752Z,26.07
2019-01-31T01:04:05.504Z,26.37
2019-01-31T01:06:57.351Z,16.93
2019-01-31T01:09:57.473Z,27.33
2019-01-31T01:12:49.840Z,29.77
2019-01-31T01:16:00.766Z,26.27
2019-01-31T01:18:59.600Z,24.23
2019-01-31T01:22:09.497Z,27.47
2019-01-31T01:25:18.611Z,25.87
2019-01-31T01:28:13.935Z,28.30
2019-01-31T01:31:49.103Z,26.87
2019-01-31T01:35:05.316Z,25.70
2019-01-31T01:38:02.778Z,23.73
2019-01-31T01:41:08.577Z,29.17
2019-01-31T01:44:17.482Z,28.63
2019-01-31T01:47:18.273Z,25.97
2019-01-31T01:50:07.350Z,26.03
2019-01-31T01:53:06.984Z,26.43
2019-01-31T01:56:29.685Z,26.13
2019-01-31T01:59:11.147Z,23.40
2019-01-31T02:02:22.061Z,25.77
2019-01-31T02:05:31.564Z,21.40
2019-01-31T02:08:33.523Z,21.33
2019-01-31T02:11:41.977Z,22.00
2019-01-31T02:14:44.063Z,20.50
2019-01-31T02:17:23.872Z,19.07
2019-01-31T02:20:13.227Z,18.83
2019-01-31T02:23:03.722Z,19.80
2019-01-31T02:26:12.574Z,20.27
2019-01-31T02:29:38.526Z,27.00
2019-01-31T02:32:31.426Z,21.70
2019-01-31T02:35:39.373Z,19.63
2019-01-31T02:38:53.473Z,23.17
2019-01-31T02:41:59.355Z,14.67
2019-01-31T02:44:55.990Z,17.73
2019-01-31T02:48:01.933Z,20.07
2019-01-31T02:50:55.504Z,30.03
2019-01-31T02:53:36.944Z,12.53
2019-01-31T02:56:33.920Z,20.90
2019-01-31T03:06:47.584Z,25.07
2019-01-31T03:09:55.144Z,24.47
2019-01-31T03:12:33.480Z,16.53
2019-01-31T03:15:17.074Z,21.07
2019-01-31T03:18:28.990Z,24.93
2019-01-31T03:21:29.678Z,20.63
2019-01-31T03:24:28.350Z,25.90
2019-01-31T03:27:30.271Z,17.37
2019-01-31T03:30:47.230Z,26.93
2019-01-31T03:33:49.250Z,34.67
2019-01-31T03:36:48.924Z,20.80
2019-01-31T03:39:43.632Z,25.10
2019-01-31T03:42:36.762Z,27.73
2019-01-31T03:45:57.236Z,24.27
2019-01-31T03:49:20.446Z,25.33
2019-01-31T03:52:06.274Z,28.70
2019-01-31T03:54:58.108Z,23.40
2019-01-31T03:57:55.986Z,24.93
2019-01-31T04:00:50.380Z,31.77
2019-01-31T04:03:38.293Z,34.17
2019-01-31T04:06:18.084Z,37.10
2019-01-31T04:08:47.580Z,37.07
2019-01-31T04:11:17.237Z,24.07
2019-01-31T04:13:46.918Z,28.40
2019-01-31T04:16:16.590Z,35.60
2019-01-31T04:18:46.213Z,29.73
2019-01-31T04:21:15.642Z,32.97
2019-01-31T04:23:45.294Z,41.17
2019-01-31T04:26:14.908Z,35.23
2019-01-31T04:28:44.768Z,44.90
2019-01-31T04:31:14.368Z,47.90
2019-01-31T04:33:43.922Z,27.60
2019-01-31T04:36:13.431Z,48.53
2019-01-31T04:38:43.137Z,41.73
2019-01-31T04:41:12.704Z,49.53
2019-01-31T04:43:42.430Z,47.50
2019-01-31T04:46:12.063Z,48.43
2019-01-31T04:48:41.618Z,52.67
2019-01-31T04:51:11.125Z,46.13
2019-01-31T04:53:40.586Z,49.87
2019-01-31T04:56:10.253Z,34.30
2019-01-31T04:58:39.961Z,32.70
2019-01-31T05:01:09.549Z,56.43
2019-01-31T05:03:39.074Z,47.30
2019-01-31T05:06:08.775Z,57.87
2019-01-31T05:08:38.322Z,41.23
2019-01-31T05:11:11.909Z,56.13
2019-01-31T05:13:41.597Z,56.40
2019-01-31T05:16:11.239Z,56.57
2019-01-31T05:18:40.976Z,50.63
2019-01-31T05:21:10.645Z,37.43
2019-01-31T05:23:40.515Z,59.63
2019-01-31T05:26:10.061Z,66.83
2019-01-31T05:28:39.731Z,55.93
2019-01-31T05:31:09.293Z,44.70
2019-01-31T05:33:39.010Z,58.80
2019-01-31T05:36:08.716Z,51.37
2019-01-31T05:38:38.318Z,54.90
2019-01-31T05:41:08.061Z,57.33
2019-01-31T05:43:37.846Z,43.83
2019-01-31T05:46:07.422Z,55.57
2019-01-31T05:48:37.091Z,55.40
2019-01-31T05:51:06.619Z,55.37
2019-01-31T05:53:36.210Z,59.27
2019-01-31T05:56:05.730Z,51.93
2019-01-31T05:58:35.224Z,40.17
2019-01-31T06:01:04.786Z,51.40
2019-01-31T06:03:34.242Z,55.60
2019-01-31T06:06:03.910Z,56.87
2019-01-31T06:08:33.538Z,49.53
2019-01-31T06:11:07.690Z,55.67
2019-01-31T06:13:34.465Z,59.67
2019-01-31T06:16:06.791Z,49.20
2019-01-31T06:18:35.531Z,56.73
2019-01-31T06:21:05.365Z,43.77
2019-01-31T06:23:34.992Z,64.23
2019-01-31T06:26:04.665Z,58.67
2019-01-31T06:28:34.280Z,62.33
2019-01-31T06:31:03.898Z,50.70
2019-01-31T06:33:33.721Z,38.03
2019-01-31T06:36:03.378Z,55.27
2019-01-31T06:38:33.130Z,50.73
2019-01-31T06:41:02.598Z,58.87
2019-01-31T06:43:32.160Z,39.70
2019-01-31T06:46:09.703Z,62.30
2019-01-31T06:48:39.108Z,66.23
2019-01-31T06:51:08.657Z,57.80
2019-01-31T06:53:38.444Z,57.03
2019-01-31T06:56:08.176Z,62.63
2019-01-31T06:58:40.960Z,66.83
2019-01-31T07:01:09.364Z,67.87
2019-01-31T07:03:39.158Z,55.63
2019-01-31T07:06:08.800Z,65.47
2019-01-31T07:08:38.278Z,59.00
2019-01-31T07:11:07.738Z,58.63
2019-01-31T07:13:37.329Z,66.30
2019-01-31T07:16:06.772Z,51.10
2019-01-31T07:18:36.415Z,64.90
2019-01-31T07:21:05.935Z,71.30
2019-01-31T07:23:36.435Z,53.33
2019-01-31T07:26:05.932Z,64.87
2019-01-31T07:28:35.510Z,64.60
2019-01-31T07:31:05.200Z,57.87
2019-01-31T07:33:34.751Z,50.80
2019-01-31T07:36:04.436Z,53.47
2019-01-31T07:38:34.231Z,59.70
2019-01-31T07:41:03.929Z,49.67
2019-01-31T07:43:35.351Z,62.60
2019-01-31T07:46:04.950Z,60.33
2019-01-31T07:48:34.623Z,71.20
2019-01-31T07:51:04.253Z,59.30
2019-01-31T07:53:33.807Z,53.30
2019-01-31T07:56:03.345Z,55.90
2019-01-31T07:58:32.786Z,61.33
2019-01-31T08:01:02.467Z,60.20
2019-01-31T08:03:32.193Z,55.77
2019-01-31T08:06:01.891Z,52.87
2019-01-31T08:08:31.657Z,55.47
2019-01-31T08:11:01.598Z,46.47
2019-01-31T08:13:31.433Z,55.83
2019-01-31T08:16:01.165Z,57.83
2019-01-31T08:18:30.655Z,57.27
2019-01-31T08:21:00.220Z,49.57
2019-01-31T08:23:29.911Z,52.17
2019-01-31T08:25:59.419Z,45.40
2019-01-31T08:28:34.971Z,59.50
2019-01-31T08:31:04.679Z,56.20
2019-01-31T08:33:34.393Z,38.60
2019-01-31T08:36:04.047Z,49.23
2019-01-31T08:38:36.588Z,50.87
2019-01-31T08:41:04.709Z,56.67
2019-01-31T08:43:34.250Z,55.17
2019-01-31T08:46:03.757Z,50.90
2019-01-31T08:48:33.226Z,45.30
2019-01-31T08:51:02.834Z,55.13
2019-01-31T08:53:32.330Z,56.47
2019-01-31T08:56:01.877Z,56.07
2019-01-31T08:58:31.474Z,65.77
2019-01-31T09:01:01.058Z,58.50
2019-01-31T09:03:31.457Z,51.13
2019-01-31T09:06:01.542Z,53.13
2019-01-31T09:08:30.998Z,46.63
2019-01-31T09:11:00.694Z,50.33
2019-01-31T09:13:30.895Z,44.40
2019-01-31T09:16:00.390Z,58.00
2019-01-31T09:18:29.889Z,55.43
2019-01-31T09:21:15.569Z,57.23
2019-01-31T09:24:14.772Z,55.37
2019-01-31T09:27:29.580Z,40.73
2019-01-31T09:30:37.560Z,54.17
2019-01-31T09:33:32.800Z,52.33
2019-01-31T09:36:51.070Z,55.90
2019-01-31T09:40:11.108Z,43.97
2019-01-31T09:43:03.815Z,46.10
2019-01-31T09:52:54.588Z,112.83
2019-01-31T09:56:04.151Z,54.73
2019-01-31T09:59:15.921Z,48.60
2019-01-31T10:02:38.353Z,55.53
2019-01-31T10:05:58.381Z,45.17
2019-01-31T10:09:20.019Z,64.27
2019-01-31T10:12:38.377Z,33.00
2019-01-31T10:15:57.280Z,43.27
2019-01-31T10:18:57.015Z,37.53
2019-01-31T10:22:09.499Z,45.00
2019-01-31T10:25:19.036Z,54.03
2019-01-31T10:28:28.739Z,32.40
2019-01-31T10:31:48.296Z,38.77
2019-01-31T10:35:01.107Z,46.47
2019-01-31T10:38:16.333Z,38.70
2019-01-31T10:41:07.489Z,35.70
2019-01-31T10:44:06.961Z,49.90
2019-01-31T10:47:11.345Z,45.20
2019-01-31T10:50:12.509Z,43.37
2019-01-31T10:53:17.139Z,45.57
2019-01-31T10:56:17.363Z,52.17
2019-01-31T10:59:23.774Z,55.27
2019-01-31T11:02:25.022Z,53.47
2019-01-31T11:06:03.237Z,43.33
2019-01-31T11:09:07.941Z,42.77
2019-01-31T11:12:36.794Z,53.03
2019-01-31T11:15:25.913Z,40.87
2019-01-31T11:18:29.900Z,50.37
2019-01-31T11:21:16.968Z,48.83
2019-01-31T11:24:31.929Z,44.23
2019-01-31T11:27:31.782Z,43.03
2019-01-31T11:30:39.901Z,45.17
2019-01-31T11:33:31.166Z,51.33
2019-01-31T11:36:30.157Z,35.20
2019-01-31T11:39:55.037Z,30.23
2019-01-31T11:43:11.337Z,48.53
2019-01-31T11:46:18.216Z,42.97
2019-01-31T11:49:25.061Z,50.80
2019-01-31T11:52:19.701Z,44.40
2019-01-31T11:55:30.578Z,39.90
2019-01-31T11:58:37.074Z,47.27
2019-01-31T12:01:08.396Z,42.93
2019-01-31T12:03:38.803Z,38.30
2019-01-31T12:06:08.735Z,44.07
2019-01-31T12:08:38.535Z,36.83
2019-01-31T12:11:08.346Z,41.33
2019-01-31T12:13:38.080Z,38.27
2019-01-31T12:16:08.098Z,30.33
2019-01-31T12:18:37.911Z,35.10
2019-01-31T12:21:07.638Z,43.90
2019-01-31T12:23:37.396Z,47.00
2019-01-31T12:26:07.188Z,41.07
2019-01-31T12:28:36.789Z,48.67
2019-01-31T12:31:06.560Z,59.83
2019-01-31T12:33:36.524Z,37.20
2019-01-31T12:36:06.301Z,35.07
2019-01-31T12:38:37.105Z,44.67
2019-01-31T12:41:07.360Z,42.00
2019-01-31T12:43:37.158Z,40.50
2019-01-31T12:46:07.078Z,38.43
2019-01-31T12:48:36.935Z,36.93
2019-01-31T12:51:06.778Z,41.17
2019-01-31T12:53:36.628Z,33.10
2019-01-31T12:56:06.288Z,38.67
2019-01-31T12:58:36.044Z,43.07
2019-01-31T13:01:06.242Z,41.60
2019-01-31T13:03:37.492Z,38.13
2019-01-31T13:06:07.237Z,38.40
2019-01-31T13:08:36.966Z,47.00
2019-01-31T13:11:06.694Z,27.97
2019-01-31T13:13:45.881Z,46.57
2019-01-31T13:16:07.841Z,41.33
2019-01-31T13:18:37.448Z,47.20
2019-01-31T13:21:09.126Z,37.57
2019-01-31T13:23:38.925Z,36.20
2019-01-31T13:26:08.689Z,33.90
2019-01-31T13:28:38.630Z,39.83
2019-01-31T13:31:08.612Z,44.77
2019-01-31T13:33:38.447Z,45.60
2019-01-31T13:36:14.025Z,36.53
2019-01-31T13:38:43.891Z,44.00
2019-01-31T13:41:22.413Z,57.80
2019-01-31T13:43:57.825Z,41.17
2019-01-31T13:46:23.469Z,42.00
2019-01-31T13:48:53.166Z,37.67
2019-01-31T13:51:22.815Z,29.07
2019-01-31T13:53:52.411Z,36.67
2019-01-31T13:56:22.030Z,37.23
2019-01-31T13:58:51.519Z,36.93
2019-01-31T14:01:21.233Z,43.97
2019-01-31T14:03:50.757Z,49.27
2019-01-31T14:06:20.341Z,50.97
2019-01-31T14:08:50.010Z,45.80
2019-01-31T14:11:19.772Z,41.73
2019-01-31T14:13:49.622Z,43.73
2019-01-31T14:16:19.383Z,33.77
2019-01-31T14:18:49.010Z,45.43
2019-01-31T14:21:18.585Z,38.90
2019-01-31T14:23:48.392Z,43.13
2019-01-31T14:26:25.457Z,36.10
2019-01-31T14:28:55.105Z,49.77
2019-01-31T14:31:24.776Z,40.57
2019-01-31T14:33:54.519Z,41.03
2019-01-31T14:36:24.313Z,25.17
2019-01-31T14:38:54.101Z,45.73
2019-01-31T14:41:23.862Z,42.83
2019-01-31T14:43:53.551Z,27.50
2019-01-31T14:46:23.234Z,36.83
2019-01-31T14:48:52.930Z,36.83
2019-01-31T14:51:22.552Z,28.70
2019-01-31T14:53:52.149Z,34.20
2019-01-31T14:56:21.918Z,32.50
2019-01-31T14:58:51.492Z,36.67
2019-01-31T15:01:21.400Z,32.53
2019-01-31T15:03:51.585Z,31.13
2019-01-31T15:06:21.702Z,26.67
2019-01-31T15:08:51.443Z,34.00
2019-01-31T15:11:21.102Z,38.47
2019-01-31T15:13:50.612Z,40.07
2019-01-31T15:16:20.192Z,34.23
2019-01-31T15:23:10.891Z,120.33
2019-01-31T15:25:40.606Z,977.33
2019-01-31T15:28:15.105Z,189.60
2019-01-31T15:30:44.756Z,124.33
2019-01-31T15:33:14.685Z,53.60
2019-01-31T15:35:44.711Z,1664.60
2019-01-31T15:38:14.337Z,614.13
2019-01-31T15:40:46.384Z,92.20
2019-01-31T15:43:16.194Z,144.40
2019-01-31T15:45:46.258Z,134.33
2019-01-31T15:48:16.440Z,50.80
2019-01-31T15:50:46.167Z,105.93
2019-01-31T15:53:15.873Z,47.67
2019-01-31T15:55:45.550Z,207.40
2019-01-31T15:58:15.172Z,668.03
2019-01-31T16:00:54.073Z,623.40
2019-01-31T16:03:25.125Z,138.00
2019-01-31T16:05:54.911Z,607.80
2019-01-31T16:08:24.999Z,184.83
2019-01-31T16:10:54.711Z,920.40
2019-01-31T16:13:24.489Z,581.40
2019-01-31T16:15:54.244Z,911.13
2019-01-31T16:26:14.310Z,1999.90
2019-01-31T16:28:44.101Z,1100.80
2019-01-31T16:31:13.805Z,1709.77
2019-01-31T16:33:43.637Z,1582.50
2019-01-31T16:36:13.328Z,939.47
2019-01-31T16:38:42.952Z,186.30
2019-01-31T16:41:12.849Z,885.33
2019-01-31T16:43:42.990Z,121.33
2019-01-31T16:46:12.811Z,252.23
2019-01-31T16:48:42.510Z,50.00
2019-01-31T16:51:12.376Z,53.50
2019-01-31T16:53:42.581Z,45.73
2019-01-31T16:56:12.356Z,53.03
2019-01-31T16:58:42.142Z,46.20
2019-01-31T17:01:11.911Z,46.27
2019-01-31T17:03:41.640Z,52.40
2019-01-31T17:06:11.112Z,59.27
2019-01-31T17:08:41.134Z,53.47
2019-01-31T17:11:11.088Z,44.83
2019-01-31T17:13:40.934Z,47.87
2019-01-31T17:16:10.696Z,48.70
2019-01-31T17:18:40.520Z,57.37
2019-01-31T17:21:10.354Z,52.37
2019-01-31T17:23:40.203Z,47.77
2019-01-31T17:26:09.963Z,55.23
2019-01-31T17:28:40.159Z,46.23
2019-01-31T17:31:10.040Z,61.87
2019-01-31T17:33:39.722Z,69.03
2019-01-31T17:36:09.476Z,52.27
2019-01-31T17:38:39.292Z,60.77
2019-01-31T17:41:08.949Z,60.80
2019-01-31T17:43:38.771Z,63.27
2019-01-31T17:46:10.080Z,52.70
2019-01-31T17:48:39.714Z,57.40
2019-01-31T17:51:11.166Z,54.80
2019-01-31T17:53:41.056Z,51.67
2019-01-31T17:56:10.654Z,51.40
2019-01-31T17:58:40.391Z,48.70
2019-01-31T18:01:10.167Z,47.87
2019-01-31T18:03:39.634Z,43.33
2019-01-31T18:06:09.206Z,62.73
2019-01-31T18:08:38.846Z,55.83
2019-01-31T18:11:08.559Z,50.37
2019-01-31T18:13:38.427Z,50.87
2019-01-31T18:16:08.059Z,48.23
2019-01-31T18:18:37.752Z,50.20
2019-01-31T18:21:07.531Z,51.27
2019-01-31T18:23:37.449Z,56.10
2019-01-31T18:26:07.253Z,55.20
2019-01-31T18:28:37.052Z,36.03
2019-01-31T18:31:06.863Z,47.47
2019-01-31T18:33:36.537Z,46.23
2019-01-31T18:36:06.187Z,43.78
2019-01-31T18:38:35.807Z,39.73
2019-01-31T18:41:10.264Z,38.93
2019-01-31T18:43:39.849Z,44.43
2019-01-31T18:46:09.517Z,39.47
2019-01-31T18:48:39.281Z,34.90
2019-01-31T18:51:09.005Z,35.67
2019-01-31T18:53:38.803Z,42.30
2019-01-31T18:56:08.523Z,32.77
2019-01-31T18:58:38.324Z,37.40
2019-01-31T19:01:07.951Z,32.57
2019-01-31T19:03:37.678Z,33.50
2019-01-31T19:06:07.527Z,38.80
2019-01-31T19:08:37.188Z,37.83
2019-01-31T19:11:06.962Z,35.43
2019-01-31T19:13:36.790Z,37.40
2019-01-31T19:16:06.598Z,35.20
2019-01-31T19:18:36.342Z,36.37
2019-01-31T19:21:06.144Z,35.70
2019-01-31T19:23:35.941Z,35.03
2019-01-31T19:26:05.787Z,32.33
2019-01-31T19:28:35.642Z,42.27
2019-01-31T19:31:05.511Z,34.60
2019-01-31T19:37:46.805Z,35.60
2019-01-31T19:40:20.179Z,37.47
2019-01-31T19:42:51.250Z,36.83
2019-01-31T19:45:25.312Z,38.70
2019-01-31T19:47:55.149Z,46.70
2019-01-31T19:50:24.990Z,43.23
2019-01-31T19:52:54.814Z,34.97
2019-01-31T19:55:24.471Z,39.57
2019-01-31T19:57:54.273Z,47.10
2019-01-31T20:00:23.973Z,67.63
2019-01-31T20:02:53.742Z,42.83
2019-01-31T20:12:37.595Z,49.47
2019-01-31T20:15:08.436Z,42.40
2019-01-31T20:17:38.141Z,59.43
2019-01-31T20:20:11.187Z,41.63
2019-01-31T20:22:40.994Z,40.33
2019-01-31T20:25:11.007Z,39.50
2019-01-31T20:27:40.815Z,41.07
2019-01-31T20:30:11.920Z,43.17
2019-01-31T20:32:41.787Z,38.93
2019-01-31T20:35:12.153Z,40.03
2019-01-31T20:37:42.226Z,41.87
2019-01-31T20:40:14.063Z,44.20
2019-01-31T20:42:44.036Z,39.77
2019-01-31T20:45:14.685Z,46.53
2019-01-31T20:47:44.397Z,40.33
2019-01-31T20:50:18.014Z,40.10
2019-01-31T20:52:47.707Z,48.87
2019-01-31T20:55:17.791Z,40.57
2019-01-31T20:57:47.797Z,44.67
2019-01-31T21:00:35.132Z,44.17
2019-01-31T21:03:05.688Z,42.83
2019-01-31T21:09:17.012Z,66.10
2019-01-31T21:11:46.679Z,47.60
2019-01-31T21:14:16.357Z,50.83
2019-01-31T21:16:51.743Z,56.17
2019-01-31T21:22:59.123Z,36.63
2019-01-31T21:25:29.014Z,50.17
2019-01-31T21:27:58.909Z,37.53
2019-01-31T21:30:31.031Z,51.20
2019-01-31T21:33:01.009Z,52.67
2019-01-31T21:39:05.025Z,50.63
2019-01-31T21:41:34.730Z,41.93
2019-01-31T21:44:04.525Z,45.37
2019-01-31T21:46:34.440Z,53.03
2019-01-31T21:49:04.823Z,47.33
2019-01-31T21:51:34.529Z,41.47
2019-01-31T21:54:04.455Z,37.30
2019-01-31T21:56:34.203Z,47.40
2019-01-31T21:59:03.865Z,41.03
2019-01-31T22:01:34.179Z,54.43
2019-01-31T22:04:03.991Z,46.50
2019-01-31T22:06:33.608Z,45.83
2019-01-31T22:09:03.487Z,46.27
2019-01-31T22:11:33.194Z,55.70
2019-01-31T22:14:03.188Z,48.47
2019-01-31T22:16:32.931Z,46.57
2019-01-31T22:23:02.670Z,47.10
2019-01-31T22:25:32.368Z,42.60
2019-01-31T22:28:02.167Z,37.20
2019-01-31T22:30:38.096Z,38.63
2019-01-31T22:33:09.318Z,40.03
2019-01-31T22:35:38.966Z,44.23
2019-01-31T22:38:08.751Z,49.57
2019-01-31T22:40:38.416Z,36.97
2019-01-31T22:43:09.612Z,42.67
2019-01-31T22:45:39.446Z,32.77
2019-01-31T22:48:21.507Z,41.33
2019-01-31T22:50:51.587Z,38.43
2019-01-31T22:53:21.333Z,42.37
2019-01-31T22:55:50.947Z,40.80
2019-01-31T22:58:20.737Z,31.57
2019-01-31T23:01:22.639Z,39.30
2019-01-31T23:03:52.642Z,47.57
2019-01-31T23:06:22.311Z,35.93
2019-01-31T23:08:52.065Z,45.00
2019-01-31T23:11:21.651Z,40.70
2019-01-31T23:13:51.342Z,43.43
2019-01-31T23:16:20.848Z,40.13
2019-01-31T23:18:50.529Z,39.83
2019-01-31T23:21:20.101Z,37.87
2019-01-31T23:23:49.827Z,35.43
2019-01-31T23:26:19.420Z,34.10
2019-01-31T23:28:49.012Z,37.83
2019-01-31T23:31:18.497Z,37.07
2019-01-31T23:33:48.445Z,38.43
2019-01-31T23:36:18.023Z,39.00
2019-01-31T23:38:47.593Z,36.70
2019-01-31T23:41:17.201Z,40.00
2019-01-31T23:43:46.912Z,37.97
2019-01-31T23:46:16.816Z,40.27
2019-01-31T23:48:46.415Z,38.17
2019-01-31T23:51:16.121Z,37.10
2019-01-31T23:53:45.738Z,36.83
2019-01-31T23:56:15.291Z,37.80
2019-01-31T23:58:44.904Z,32.37
